sensor_id;sensor_type;location;lat;lon;timestamp;P1;durP1;ratioP1;P2;durP2;ratioP2
11817;SDS011;5966;52.402;5.322;2023-04-16T00:02:13;9.50;;;3.47;;
11817;SDS011;5966;52.402;5.322;2023-04-16T00:04:42;6.77;;;2.67;;
11817;SDS011;5966;52.402;5.322;2023-04-16T00:07:10;9.03;;;2.57;;
11817;SDS011;5966;52.402;5.322;2023-04-16T00:09:39;9.77;;;3.00;;
11817;SDS011;5966;52.402;5.322;2023-04-16T00:12:07;7.47;;;2.87;;
11817;SDS011;5966;52.402;5.322;2023-04-16T00:14:35;9.00;;;2.40;;
11817;SDS011;5966;52.402;5.322;2023-04-16T00:17:03;8.07;;;2.50;;
11817;SDS011;5966;52.402;5.322;2023-04-16T00:19:31;6.27;;;2.63;;
11817;SDS011;5966;52.402;5.322;2023-04-16T00:21:59;7.10;;;2.30;;
11817;SDS011;5966;52.402;5.322;2023-04-16T00:24:27;5.93;;;2.60;;
11817;SDS011;5966;52.402;5.322;2023-04-16T00:26:57;5.67;;;2.70;;
11817;SDS011;5966;52.402;5.322;2023-04-16T00:29:25;8.53;;;3.00;;
11817;SDS011;5966;52.402;5.322;2023-04-16T00:31:53;8.67;;;3.03;;
11817;SDS011;5966;52.402;5.322;2023-04-16T00:34:21;4.63;;;2.50;;
11817;SDS011;5966;52.402;5.322;2023-04-16T00:36:49;7.00;;;2.50;;
11817;SDS011;5966;52.402;5.322;2023-04-16T00:39:17;6.63;;;2.40;;
11817;SDS011;5966;52.402;5.322;2023-04-16T00:41:45;7.50;;;2.73;;
11817;SDS011;5966;52.402;5.322;2023-04-16T00:44:15;8.63;;;2.80;;
11817;SDS011;5966;52.402;5.322;2023-04-16T00:46:43;9.10;;;3.07;;
11817;SDS011;5966;52.402;5.322;2023-04-16T00:49:12;5.57;;;2.30;;
11817;SDS011;5966;52.402;5.322;2023-04-16T00:51:40;10.93;;;2.93;;
11817;SDS011;5966;52.402;5.322;2023-04-16T00:54:09;6.23;;;3.00;;
11817;SDS011;5966;52.402;5.322;2023-04-16T00:56:37;8.80;;;3.20;;
11817;SDS011;5966;52.402;5.322;2023-04-16T00:59:06;8.90;;;2.87;;
11817;SDS011;5966;52.402;5.322;2023-04-16T01:01:36;5.73;;;3.10;;
11817;SDS011;5966;52.402;5.322;2023-04-16T01:04:04;5.63;;;2.93;;
11817;SDS011;5966;52.402;5.322;2023-04-16T01:06:33;7.67;;;3.20;;
11817;SDS011;5966;52.402;5.322;2023-04-16T01:09:01;6.50;;;2.77;;
11817;SDS011;5966;52.402;5.322;2023-04-16T01:11:29;10.27;;;3.27;;
11817;SDS011;5966;52.402;5.322;2023-04-16T01:13:57;5.93;;;3.00;;
11817;SDS011;5966;52.402;5.322;2023-04-16T01:16:25;8.63;;;3.40;;
11817;SDS011;5966;52.402;5.322;2023-04-16T01:18:55;9.50;;;4.03;;
11817;SDS011;5966;52.402;5.322;2023-04-16T01:21:24;8.70;;;3.80;;
11817;SDS011;5966;52.402;5.322;2023-04-16T01:23:52;7.33;;;3.20;;
11817;SDS011;5966;52.402;5.322;2023-04-16T01:26:20;8.70;;;3.70;;
11817;SDS011;5966;52.402;5.322;2023-04-16T01:28:48;12.70;;;3.80;;
11817;SDS011;5966;52.402;5.322;2023-04-16T01:31:16;10.87;;;3.47;;
11817;SDS011;5966;52.402;5.322;2023-04-16T01:33:44;9.17;;;3.67;;
11817;SDS011;5966;52.402;5.322;2023-04-16T01:36:12;11.57;;;4.30;;
11817;SDS011;5966;52.402;5.322;2023-04-16T01:38:41;11.43;;;3.90;;
11817;SDS011;5966;52.402;5.322;2023-04-16T01:41:09;9.07;;;4.00;;
11817;SDS011;5966;52.402;5.322;2023-04-16T01:43:37;10.10;;;3.60;;
11817;SDS011;5966;52.402;5.322;2023-04-16T01:46:12;9.23;;;4.50;;
11817;SDS011;5966;52.402;5.322;2023-04-16T01:48:41;8.90;;;3.60;;
11817;SDS011;5966;52.402;5.322;2023-04-16T01:51:09;9.77;;;5.47;;
11817;SDS011;5966;52.402;5.322;2023-04-16T01:53:37;9.70;;;4.60;;
11817;SDS011;5966;52.402;5.322;2023-04-16T01:56:07;8.47;;;4.37;;
11817;SDS011;5966;52.402;5.322;2023-04-16T01:58:35;13.03;;;5.83;;
11817;SDS011;5966;52.402;5.322;2023-04-16T02:01:03;10.57;;;5.60;;
11817;SDS011;5966;52.402;5.322;2023-04-16T02:03:32;10.67;;;5.77;;
11817;SDS011;5966;52.402;5.322;2023-04-16T02:06:00;9.70;;;5.60;;
11817;SDS011;5966;52.402;5.322;2023-04-16T02:08:28;12.37;;;5.87;;
11817;SDS011;5966;52.402;5.322;2023-04-16T02:10:56;10.93;;;6.00;;
11817;SDS011;5966;52.402;5.322;2023-04-16T02:13:26;12.03;;;6.53;;
11817;SDS011;5966;52.402;5.322;2023-04-16T02:15:54;15.63;;;7.03;;
11817;SDS011;5966;52.402;5.322;2023-04-16T02:18:24;9.50;;;6.23;;
11817;SDS011;5966;52.402;5.322;2023-04-16T02:20:52;14.67;;;6.37;;
11817;SDS011;5966;52.402;5.322;2023-04-16T02:23:20;9.67;;;5.50;;
11817;SDS011;5966;52.402;5.322;2023-04-16T02:25:48;9.23;;;5.00;;
11817;SDS011;5966;52.402;5.322;2023-04-16T02:28:16;11.27;;;5.77;;
11817;SDS011;5966;52.402;5.322;2023-04-16T02:30:45;10.17;;;5.33;;
11817;SDS011;5966;52.402;5.322;2023-04-16T02:33:13;9.80;;;5.07;;
11817;SDS011;5966;52.402;5.322;2023-04-16T02:35:41;11.47;;;5.50;;
11817;SDS011;5966;52.402;5.322;2023-04-16T02:38:09;13.00;;;5.40;;
11817;SDS011;5966;52.402;5.322;2023-04-16T02:40:37;11.20;;;5.70;;
11817;SDS011;5966;52.402;5.322;2023-04-16T02:43:05;9.83;;;5.43;;
11817;SDS011;5966;52.402;5.322;2023-04-16T02:45:33;10.53;;;5.83;;
11817;SDS011;5966;52.402;5.322;2023-04-16T02:48:02;11.40;;;5.87;;
11817;SDS011;5966;52.402;5.322;2023-04-16T02:50:32;10.17;;;5.03;;
11817;SDS011;5966;52.402;5.322;2023-04-16T02:53:00;9.33;;;6.07;;
11817;SDS011;5966;52.402;5.322;2023-04-16T02:55:29;10.07;;;5.70;;
11817;SDS011;5966;52.402;5.322;2023-04-16T02:57:57;10.00;;;5.83;;
11817;SDS011;5966;52.402;5.322;2023-04-16T03:00:25;10.63;;;5.97;;
11817;SDS011;5966;52.402;5.322;2023-04-16T03:02:53;12.73;;;5.67;;
11817;SDS011;5966;52.402;5.322;2023-04-16T03:05:22;10.93;;;6.20;;
11817;SDS011;5966;52.402;5.322;2023-04-16T03:07:50;9.97;;;6.03;;
11817;SDS011;5966;52.402;5.322;2023-04-16T03:10:22;12.47;;;5.90;;
11817;SDS011;5966;52.402;5.322;2023-04-16T03:12:50;9.97;;;5.57;;
11817;SDS011;5966;52.402;5.322;2023-04-16T03:15:18;11.80;;;6.93;;
11817;SDS011;5966;52.402;5.322;2023-04-16T03:17:46;13.13;;;6.23;;
11817;SDS011;5966;52.402;5.322;2023-04-16T03:20:14;11.50;;;6.00;;
11817;SDS011;5966;52.402;5.322;2023-04-16T03:22:43;11.97;;;5.93;;
11817;SDS011;5966;52.402;5.322;2023-04-16T03:25:12;11.27;;;6.40;;
11817;SDS011;5966;52.402;5.322;2023-04-16T03:27:40;13.67;;;6.30;;
11817;SDS011;5966;52.402;5.322;2023-04-16T03:30:09;12.27;;;6.23;;
11817;SDS011;5966;52.402;5.322;2023-04-16T03:32:38;14.97;;;6.03;;
11817;SDS011;5966;52.402;5.322;2023-04-16T03:35:07;11.53;;;6.63;;
11817;SDS011;5966;52.402;5.322;2023-04-16T03:37:35;12.80;;;6.17;;
11817;SDS011;5966;52.402;5.322;2023-04-16T03:40:05;16.03;;;6.70;;
11817;SDS011;5966;52.402;5.322;2023-04-16T03:42:34;17.27;;;6.90;;
11817;SDS011;5966;52.402;5.322;2023-04-16T03:45:02;12.53;;;7.43;;
11817;SDS011;5966;52.402;5.322;2023-04-16T03:47:31;15.13;;;6.80;;
11817;SDS011;5966;52.402;5.322;2023-04-16T03:49:59;11.40;;;6.67;;
11817;SDS011;5966;52.402;5.322;2023-04-16T03:52:27;11.70;;;7.17;;
11817;SDS011;5966;52.402;5.322;2023-04-16T03:54:55;13.40;;;6.13;;
11817;SDS011;5966;52.402;5.322;2023-04-16T03:57:24;13.30;;;6.70;;
11817;SDS011;5966;52.402;5.322;2023-04-16T03:59:52;13.43;;;6.23;;
11817;SDS011;5966;52.402;5.322;2023-04-16T04:02:20;14.03;;;6.80;;
11817;SDS011;5966;52.402;5.322;2023-04-16T04:04:48;11.43;;;7.07;;
11817;SDS011;5966;52.402;5.322;2023-04-16T04:07:16;9.63;;;5.67;;
11817;SDS011;5966;52.402;5.322;2023-04-16T04:09:44;9.70;;;5.97;;
11817;SDS011;5966;52.402;5.322;2023-04-16T04:12:12;15.17;;;6.63;;
11817;SDS011;5966;52.402;5.322;2023-04-16T04:14:42;13.83;;;6.60;;
11817;SDS011;5966;52.402;5.322;2023-04-16T04:17:09;13.10;;;6.23;;
11817;SDS011;5966;52.402;5.322;2023-04-16T04:19:37;12.53;;;7.00;;
11817;SDS011;5966;52.402;5.322;2023-04-16T04:22:19;13.33;;;7.07;;
11817;SDS011;5966;52.402;5.322;2023-04-16T04:24:47;13.10;;;6.27;;
11817;SDS011;5966;52.402;5.322;2023-04-16T04:27:15;16.43;;;6.70;;
11817;SDS011;5966;52.402;5.322;2023-04-16T04:29:45;12.27;;;5.90;;
11817;SDS011;5966;52.402;5.322;2023-04-16T04:32:12;14.27;;;6.30;;
11817;SDS011;5966;52.402;5.322;2023-04-16T04:34:40;12.60;;;6.00;;
11817;SDS011;5966;52.402;5.322;2023-04-16T04:37:08;12.23;;;6.27;;
11817;SDS011;5966;52.402;5.322;2023-04-16T04:39:36;11.73;;;6.80;;
11817;SDS011;5966;52.402;5.322;2023-04-16T04:42:04;10.90;;;5.77;;
11817;SDS011;5966;52.402;5.322;2023-04-16T04:44:32;8.87;;;6.00;;
11817;SDS011;5966;52.402;5.322;2023-04-16T04:47:02;11.10;;;6.37;;
11817;SDS011;5966;52.402;5.322;2023-04-16T04:49:30;12.00;;;6.73;;
11817;SDS011;5966;52.402;5.322;2023-04-16T04:51:58;16.07;;;6.60;;
11817;SDS011;5966;52.402;5.322;2023-04-16T04:54:27;10.63;;;6.20;;
11817;SDS011;5966;52.402;5.322;2023-04-16T04:56:55;16.53;;;7.17;;
11817;SDS011;5966;52.402;5.322;2023-04-16T04:59:23;13.37;;;6.40;;
11817;SDS011;5966;52.402;5.322;2023-04-16T05:01:51;12.33;;;5.67;;
11817;SDS011;5966;52.402;5.322;2023-04-16T05:04:21;9.83;;;5.83;;
11817;SDS011;5966;52.402;5.322;2023-04-16T05:06:49;13.50;;;6.30;;
11817;SDS011;5966;52.402;5.322;2023-04-16T05:09:17;15.23;;;6.90;;
11817;SDS011;5966;52.402;5.322;2023-04-16T05:11:45;17.57;;;6.80;;
11817;SDS011;5966;52.402;5.322;2023-04-16T05:14:13;15.73;;;7.13;;
11817;SDS011;5966;52.402;5.322;2023-04-16T05:16:41;14.27;;;7.13;;
11817;SDS011;5966;52.402;5.322;2023-04-16T05:19:09;18.23;;;7.43;;
11817;SDS011;5966;52.402;5.322;2023-04-16T05:21:38;14.77;;;6.97;;
11817;SDS011;5966;52.402;5.322;2023-04-16T05:24:06;12.73;;;6.93;;
11817;SDS011;5966;52.402;5.322;2023-04-16T05:26:34;15.37;;;8.30;;
11817;SDS011;5966;52.402;5.322;2023-04-16T05:29:02;12.77;;;7.43;;
11817;SDS011;5966;52.402;5.322;2023-04-16T05:31:30;12.90;;;7.27;;
11817;SDS011;5966;52.402;5.322;2023-04-16T05:33:58;14.43;;;7.67;;
11817;SDS011;5966;52.402;5.322;2023-04-16T05:36:26;15.03;;;6.93;;
11817;SDS011;5966;52.402;5.322;2023-04-16T05:38:55;16.17;;;7.77;;
11817;SDS011;5966;52.402;5.322;2023-04-16T05:41:23;13.27;;;7.57;;
11817;SDS011;5966;52.402;5.322;2023-04-16T05:43:51;14.93;;;7.57;;
11817;SDS011;5966;52.402;5.322;2023-04-16T05:46:19;12.10;;;7.10;;
11817;SDS011;5966;52.402;5.322;2023-04-16T05:48:47;11.00;;;7.43;;
11817;SDS011;5966;52.402;5.322;2023-04-16T05:51:15;12.13;;;7.60;;
11817;SDS011;5966;52.402;5.322;2023-04-16T05:53:43;15.27;;;8.10;;
11817;SDS011;5966;52.402;5.322;2023-04-16T05:56:13;12.57;;;7.50;;
11817;SDS011;5966;52.402;5.322;2023-04-16T05:58:41;14.77;;;8.47;;
11817;SDS011;5966;52.402;5.322;2023-04-16T06:01:09;11.87;;;8.97;;
11817;SDS011;5966;52.402;5.322;2023-04-16T06:03:37;15.60;;;9.53;;
11817;SDS011;5966;52.402;5.322;2023-04-16T06:06:06;15.10;;;9.20;;
11817;SDS011;5966;52.402;5.322;2023-04-16T06:08:34;13.77;;;9.60;;
11817;SDS011;5966;52.402;5.322;2023-04-16T06:11:02;13.90;;;9.80;;
11817;SDS011;5966;52.402;5.322;2023-04-16T06:13:31;12.47;;;9.30;;
11817;SDS011;5966;52.402;5.322;2023-04-16T06:15:59;16.40;;;9.33;;
11817;SDS011;5966;52.402;5.322;2023-04-16T06:18:27;15.30;;;9.60;;
11817;SDS011;5966;52.402;5.322;2023-04-16T06:20:55;14.83;;;8.53;;
11817;SDS011;5966;52.402;5.322;2023-04-16T06:23:24;13.03;;;8.13;;
11817;SDS011;5966;52.402;5.322;2023-04-16T06:25:51;14.17;;;8.77;;
11817;SDS011;5966;52.402;5.322;2023-04-16T06:28:19;12.07;;;8.10;;
11817;SDS011;5966;52.402;5.322;2023-04-16T06:30:49;12.47;;;7.93;;
11817;SDS011;5966;52.402;5.322;2023-04-16T06:33:17;13.20;;;7.43;;
11817;SDS011;5966;52.402;5.322;2023-04-16T06:35:45;16.47;;;7.70;;
11817;SDS011;5966;52.402;5.322;2023-04-16T06:38:13;13.33;;;8.33;;
11817;SDS011;5966;52.402;5.322;2023-04-16T06:40:41;12.53;;;7.70;;
11817;SDS011;5966;52.402;5.322;2023-04-16T06:43:09;11.57;;;7.23;;
11817;SDS011;5966;52.402;5.322;2023-04-16T06:45:37;10.77;;;7.50;;
11817;SDS011;5966;52.402;5.322;2023-04-16T06:48:06;12.30;;;7.70;;
11817;SDS011;5966;52.402;5.322;2023-04-16T06:50:34;12.17;;;7.27;;
11817;SDS011;5966;52.402;5.322;2023-04-16T06:53:02;8.37;;;6.07;;
11817;SDS011;5966;52.402;5.322;2023-04-16T06:55:30;10.23;;;6.70;;
11817;SDS011;5966;52.402;5.322;2023-04-16T06:57:58;9.77;;;5.50;;
11817;SDS011;5966;52.402;5.322;2023-04-16T07:00:26;6.03;;;5.07;;
11817;SDS011;5966;52.402;5.322;2023-04-16T07:02:54;8.73;;;5.30;;
11817;SDS011;5966;52.402;5.322;2023-04-16T07:05:25;8.43;;;5.33;;
11817;SDS011;5966;52.402;5.322;2023-04-16T07:07:53;7.37;;;5.13;;
11817;SDS011;5966;52.402;5.322;2023-04-16T07:10:22;8.33;;;4.80;;
11817;SDS011;5966;52.402;5.322;2023-04-16T07:12:50;8.07;;;4.77;;
11817;SDS011;5966;52.402;5.322;2023-04-16T07:15:18;9.97;;;5.43;;
11817;SDS011;5966;52.402;5.322;2023-04-16T07:17:46;7.93;;;4.87;;
11817;SDS011;5966;52.402;5.322;2023-04-16T07:20:14;7.60;;;4.17;;
11817;SDS011;5966;52.402;5.322;2023-04-16T07:22:44;5.80;;;3.80;;
11817;SDS011;5966;52.402;5.322;2023-04-16T07:25:12;6.13;;;3.77;;
11817;SDS011;5966;52.402;5.322;2023-04-16T07:27:40;4.93;;;3.83;;
11817;SDS011;5966;52.402;5.322;2023-04-16T07:30:08;6.13;;;3.70;;
11817;SDS011;5966;52.402;5.322;2023-04-16T07:32:37;6.23;;;3.73;;
11817;SDS011;5966;52.402;5.322;2023-04-16T07:35:05;6.43;;;3.77;;
11817;SDS011;5966;52.402;5.322;2023-04-16T07:37:33;4.63;;;3.40;;
11817;SDS011;5966;52.402;5.322;2023-04-16T07:40:03;6.97;;;3.27;;
11817;SDS011;5966;52.402;5.322;2023-04-16T07:42:32;3.73;;;3.10;;
11817;SDS011;5966;52.402;5.322;2023-04-16T07:45:00;5.90;;;3.80;;
11817;SDS011;5966;52.402;5.322;2023-04-16T07:47:27;6.87;;;3.50;;
11817;SDS011;5966;52.402;5.322;2023-04-16T07:49:55;5.47;;;3.60;;
11817;SDS011;5966;52.402;5.322;2023-04-16T07:52:23;5.70;;;3.40;;
11817;SDS011;5966;52.402;5.322;2023-04-16T07:54:51;4.90;;;3.30;;
11817;SDS011;5966;52.402;5.322;2023-04-16T07:57:21;5.97;;;3.10;;
11817;SDS011;5966;52.402;5.322;2023-04-16T07:59:49;3.97;;;3.07;;
11817;SDS011;5966;52.402;5.322;2023-04-16T08:02:17;6.07;;;3.63;;
11817;SDS011;5966;52.402;5.322;2023-04-16T08:04:45;3.07;;;2.70;;
11817;SDS011;5966;52.402;5.322;2023-04-16T08:07:13;3.43;;;2.70;;
11817;SDS011;5966;52.402;5.322;2023-04-16T08:09:48;4.53;;;2.77;;
11817;SDS011;5966;52.402;5.322;2023-04-16T08:12:18;5.10;;;3.27;;
11817;SDS011;5966;52.402;5.322;2023-04-16T08:14:47;2.70;;;2.50;;
11817;SDS011;5966;52.402;5.322;2023-04-16T08:17:15;3.60;;;2.90;;
11817;SDS011;5966;52.402;5.322;2023-04-16T08:19:44;3.13;;;2.40;;
11817;SDS011;5966;52.402;5.322;2023-04-16T08:22:12;3.00;;;2.50;;
11817;SDS011;5966;52.402;5.322;2023-04-16T08:24:40;4.70;;;2.63;;
11817;SDS011;5966;52.402;5.322;2023-04-16T08:27:08;5.37;;;2.90;;
11817;SDS011;5966;52.402;5.322;2023-04-16T08:29:44;3.43;;;2.70;;
11817;SDS011;5966;52.402;5.322;2023-04-16T08:32:14;5.00;;;2.80;;
11817;SDS011;5966;52.402;5.322;2023-04-16T08:34:42;3.47;;;3.07;;
11817;SDS011;5966;52.402;5.322;2023-04-16T08:37:10;3.87;;;2.80;;
11817;SDS011;5966;52.402;5.322;2023-04-16T08:39:38;6.27;;;3.10;;
11817;SDS011;5966;52.402;5.322;2023-04-16T08:42:08;3.40;;;2.80;;
11817;SDS011;5966;52.402;5.322;2023-04-16T08:44:46;4.97;;;2.67;;
11817;SDS011;5966;52.402;5.322;2023-04-16T08:47:16;4.20;;;2.40;;
11817;SDS011;5966;52.402;5.322;2023-04-16T08:49:48;3.60;;;2.80;;
11817;SDS011;5966;52.402;5.322;2023-04-16T08:52:18;4.93;;;2.90;;
11817;SDS011;5966;52.402;5.322;2023-04-16T08:54:51;6.90;;;3.17;;
11817;SDS011;5966;52.402;5.322;2023-04-16T08:57:25;3.70;;;3.27;;
11817;SDS011;5966;52.402;5.322;2023-04-16T09:00:03;8.70;;;3.60;;
11817;SDS011;5966;52.402;5.322;2023-04-16T09:02:36;7.40;;;3.83;;
11817;SDS011;5966;52.402;5.322;2023-04-16T09:05:06;6.17;;;3.27;;
11817;SDS011;5966;52.402;5.322;2023-04-16T09:07:35;6.63;;;3.90;;
11817;SDS011;5966;52.402;5.322;2023-04-16T09:10:05;7.50;;;4.50;;
11817;SDS011;5966;52.402;5.322;2023-04-16T09:12:34;11.20;;;4.73;;
11817;SDS011;5966;52.402;5.322;2023-04-16T09:15:02;7.67;;;4.87;;
11817;SDS011;5966;52.402;5.322;2023-04-16T09:17:32;8.37;;;5.20;;
11817;SDS011;5966;52.402;5.322;2023-04-16T09:20:02;9.03;;;5.00;;
11817;SDS011;5966;52.402;5.322;2023-04-16T09:22:33;11.13;;;6.23;;
11817;SDS011;5966;52.402;5.322;2023-04-16T09:25:02;11.93;;;7.13;;
11817;SDS011;5966;52.402;5.322;2023-04-16T09:27:30;15.03;;;7.73;;
11817;SDS011;5966;52.402;5.322;2023-04-16T09:29:58;18.53;;;7.50;;
11817;SDS011;5966;52.402;5.322;2023-04-16T09:32:26;14.20;;;7.77;;
11817;SDS011;5966;52.402;5.322;2023-04-16T09:34:56;14.87;;;8.77;;
11817;SDS011;5966;52.402;5.322;2023-04-16T09:37:27;13.67;;;7.30;;
11817;SDS011;5966;52.402;5.322;2023-04-16T09:39:57;13.17;;;7.30;;
11817;SDS011;5966;52.402;5.322;2023-04-16T09:42:26;9.60;;;6.07;;
11817;SDS011;5966;52.402;5.322;2023-04-16T09:44:56;15.57;;;8.20;;
11817;SDS011;5966;52.402;5.322;2023-04-16T09:47:37;14.33;;;7.43;;
11817;SDS011;5966;52.402;5.322;2023-04-16T09:50:07;11.73;;;6.23;;
11817;SDS011;5966;52.402;5.322;2023-04-16T09:52:41;10.70;;;5.60;;
11817;SDS011;5966;52.402;5.322;2023-04-16T09:55:10;14.80;;;5.97;;
11817;SDS011;5966;52.402;5.322;2023-04-16T09:57:39;7.20;;;5.23;;
11817;SDS011;5966;52.402;5.322;2023-04-16T10:00:07;7.70;;;5.80;;
11817;SDS011;5966;52.402;5.322;2023-04-16T10:02:39;7.67;;;5.80;;
11817;SDS011;5966;52.402;5.322;2023-04-16T10:05:08;10.03;;;5.90;;
11817;SDS011;5966;52.402;5.322;2023-04-16T10:07:43;12.43;;;6.33;;
11817;SDS011;5966;52.402;5.322;2023-04-16T10:10:11;11.43;;;6.70;;
11817;SDS011;5966;52.402;5.322;2023-04-16T10:12:39;14.03;;;7.03;;
11817;SDS011;5966;52.402;5.322;2023-04-16T10:15:07;10.37;;;7.03;;
11817;SDS011;5966;52.402;5.322;2023-04-16T10:17:36;12.00;;;7.03;;
11817;SDS011;5966;52.402;5.322;2023-04-16T10:20:05;9.83;;;6.43;;
11817;SDS011;5966;52.402;5.322;2023-04-16T10:22:34;13.40;;;7.13;;
11817;SDS011;5966;52.402;5.322;2023-04-16T10:25:04;10.57;;;7.27;;
11817;SDS011;5966;52.402;5.322;2023-04-16T10:27:34;13.30;;;7.33;;
11817;SDS011;5966;52.402;5.322;2023-04-16T10:30:03;14.07;;;7.80;;
11817;SDS011;5966;52.402;5.322;2023-04-16T10:32:33;13.80;;;7.50;;
11817;SDS011;5966;52.402;5.322;2023-04-16T10:35:03;12.17;;;8.73;;
11817;SDS011;5966;52.402;5.322;2023-04-16T10:37:32;17.80;;;9.23;;
11817;SDS011;5966;52.402;5.322;2023-04-16T10:40:00;22.07;;;9.73;;
11817;SDS011;5966;52.402;5.322;2023-04-16T10:42:53;17.60;;;9.27;;
11817;SDS011;5966;52.402;5.322;2023-04-16T10:45:31;23.50;;;11.07;;
11817;SDS011;5966;52.402;5.322;2023-04-16T10:48:03;16.97;;;9.03;;
11817;SDS011;5966;52.402;5.322;2023-04-16T10:50:34;18.13;;;9.93;;
11817;SDS011;5966;52.402;5.322;2023-04-16T10:53:19;13.73;;;8.73;;
11817;SDS011;5966;52.402;5.322;2023-04-16T10:55:58;19.23;;;9.33;;
11817;SDS011;5966;52.402;5.322;2023-04-16T10:58:40;15.07;;;9.60;;
11817;SDS011;5966;52.402;5.322;2023-04-16T11:01:12;17.87;;;10.17;;
11817;SDS011;5966;52.402;5.322;2023-04-16T11:03:42;19.20;;;10.47;;
11817;SDS011;5966;52.402;5.322;2023-04-16T11:06:14;16.43;;;9.00;;
11817;SDS011;5966;52.402;5.322;2023-04-16T11:08:43;15.73;;;9.30;;
11817;SDS011;5966;52.402;5.322;2023-04-16T11:11:20;15.57;;;8.33;;
11817;SDS011;5966;52.402;5.322;2023-04-16T11:13:52;19.40;;;10.77;;
11817;SDS011;5966;52.402;5.322;2023-04-16T11:16:23;23.50;;;11.13;;
11817;SDS011;5966;52.402;5.322;2023-04-16T11:18:52;18.27;;;10.77;;
11817;SDS011;5966;52.402;5.322;2023-04-16T11:21:22;19.90;;;9.90;;
11817;SDS011;5966;52.402;5.322;2023-04-16T11:23:52;23.40;;;10.73;;
11817;SDS011;5966;52.402;5.322;2023-04-16T11:26:21;21.10;;;10.10;;
11817;SDS011;5966;52.402;5.322;2023-04-16T11:28:52;15.50;;;8.53;;
11817;SDS011;5966;52.402;5.322;2023-04-16T11:31:21;19.37;;;9.30;;
11817;SDS011;5966;52.402;5.322;2023-04-16T11:33:49;17.47;;;8.80;;
11817;SDS011;5966;52.402;5.322;2023-04-16T11:36:17;17.33;;;10.30;;
11817;SDS011;5966;52.402;5.322;2023-04-16T11:38:45;19.60;;;8.83;;
11817;SDS011;5966;52.402;5.322;2023-04-16T11:41:18;17.77;;;9.37;;
11817;SDS011;5966;52.402;5.322;2023-04-16T11:43:46;21.77;;;9.63;;
11817;SDS011;5966;52.402;5.322;2023-04-16T11:46:16;16.27;;;9.30;;
11817;SDS011;5966;52.402;5.322;2023-04-16T11:48:53;16.17;;;8.93;;
11817;SDS011;5966;52.402;5.322;2023-04-16T11:51:21;18.00;;;9.10;;
11817;SDS011;5966;52.402;5.322;2023-04-16T11:53:50;18.23;;;9.33;;
11817;SDS011;5966;52.402;5.322;2023-04-16T11:56:25;18.03;;;9.73;;
11817;SDS011;5966;52.402;5.322;2023-04-16T12:01:39;22.33;;;10.10;;
11817;SDS011;5966;52.402;5.322;2023-04-16T12:04:11;19.83;;;9.70;;
11817;SDS011;5966;52.402;5.322;2023-04-16T12:06:40;21.73;;;9.70;;
11817;SDS011;5966;52.402;5.322;2023-04-16T12:09:30;18.97;;;9.20;;
11817;SDS011;5966;52.402;5.322;2023-04-16T12:12:02;17.63;;;8.70;;
11817;SDS011;5966;52.402;5.322;2023-04-16T12:14:30;17.83;;;8.73;;
11817;SDS011;5966;52.402;5.322;2023-04-16T12:19:49;17.40;;;8.20;;
11817;SDS011;5966;52.402;5.322;2023-04-16T12:22:24;20.00;;;8.20;;
11817;SDS011;5966;52.402;5.322;2023-04-16T12:24:59;20.17;;;8.20;;
11817;SDS011;5966;52.402;5.322;2023-04-16T12:27:41;15.00;;;7.57;;
11817;SDS011;5966;52.402;5.322;2023-04-16T12:30:12;16.50;;;7.47;;
11817;SDS011;5966;52.402;5.322;2023-04-16T12:32:44;12.47;;;6.90;;
11817;SDS011;5966;52.402;5.322;2023-04-16T12:35:13;15.13;;;7.37;;
11817;SDS011;5966;52.402;5.322;2023-04-16T12:37:56;18.40;;;8.23;;
11817;SDS011;5966;52.402;5.322;2023-04-16T12:40:24;13.90;;;6.53;;
11817;SDS011;5966;52.402;5.322;2023-04-16T12:42:52;12.57;;;6.67;;
11817;SDS011;5966;52.402;5.322;2023-04-16T12:45:20;12.53;;;6.97;;
11817;SDS011;5966;52.402;5.322;2023-04-16T12:47:50;12.50;;;6.67;;
11817;SDS011;5966;52.402;5.322;2023-04-16T12:50:18;14.60;;;6.60;;
11817;SDS011;5966;52.402;5.322;2023-04-16T12:52:46;12.53;;;7.07;;
11817;SDS011;5966;52.402;5.322;2023-04-16T12:55:14;13.37;;;7.17;;
11817;SDS011;5966;52.402;5.322;2023-04-16T12:57:42;12.83;;;6.73;;
11817;SDS011;5966;52.402;5.322;2023-04-16T13:00:11;14.60;;;6.70;;
11817;SDS011;5966;52.402;5.322;2023-04-16T13:02:39;12.17;;;6.40;;
11817;SDS011;5966;52.402;5.322;2023-04-16T13:05:09;10.20;;;6.47;;
11817;SDS011;5966;52.402;5.322;2023-04-16T13:07:38;11.53;;;7.13;;
11817;SDS011;5966;52.402;5.322;2023-04-16T13:10:06;12.10;;;6.53;;
11817;SDS011;5966;52.402;5.322;2023-04-16T13:12:35;14.83;;;7.50;;
11817;SDS011;5966;52.402;5.322;2023-04-16T13:15:03;11.60;;;7.03;;
11817;SDS011;5966;52.402;5.322;2023-04-16T13:17:32;13.90;;;7.00;;
11817;SDS011;5966;52.402;5.322;2023-04-16T13:20:00;14.23;;;8.00;;
11817;SDS011;5966;52.402;5.322;2023-04-16T13:22:29;15.03;;;8.20;;
11817;SDS011;5966;52.402;5.322;2023-04-16T13:24:57;19.60;;;8.00;;
11817;SDS011;5966;52.402;5.322;2023-04-16T13:27:25;14.83;;;7.43;;
11817;SDS011;5966;52.402;5.322;2023-04-16T13:29:53;18.50;;;7.17;;
11817;SDS011;5966;52.402;5.322;2023-04-16T13:32:21;14.30;;;7.73;;
11817;SDS011;5966;52.402;5.322;2023-04-16T13:34:49;18.83;;;7.90;;
11817;SDS011;5966;52.402;5.322;2023-04-16T13:37:17;17.90;;;7.37;;
11817;SDS011;5966;52.402;5.322;2023-04-16T13:39:47;15.33;;;8.03;;
11817;SDS011;5966;52.402;5.322;2023-04-16T13:42:15;16.00;;;8.70;;
11817;SDS011;5966;52.402;5.322;2023-04-16T13:44:43;20.20;;;8.27;;
11817;SDS011;5966;52.402;5.322;2023-04-16T13:47:13;20.63;;;8.03;;
11817;SDS011;5966;52.402;5.322;2023-04-16T13:49:41;18.23;;;9.17;;
11817;SDS011;5966;52.402;5.322;2023-04-16T13:52:09;18.33;;;7.83;;
11817;SDS011;5966;52.402;5.322;2023-04-16T13:54:37;15.27;;;7.70;;
11817;SDS011;5966;52.402;5.322;2023-04-16T13:57:07;15.13;;;7.77;;
11817;SDS011;5966;52.402;5.322;2023-04-16T13:59:35;18.00;;;7.80;;
11817;SDS011;5966;52.402;5.322;2023-04-16T14:02:03;14.87;;;7.37;;
11817;SDS011;5966;52.402;5.322;2023-04-16T14:04:31;11.70;;;6.77;;
11817;SDS011;5966;52.402;5.322;2023-04-16T14:06:59;17.30;;;7.60;;
11817;SDS011;5966;52.402;5.322;2023-04-16T14:09:27;11.77;;;7.30;;
11817;SDS011;5966;52.402;5.322;2023-04-16T14:11:55;15.87;;;7.57;;
11817;SDS011;5966;52.402;5.322;2023-04-16T14:14:24;15.53;;;7.97;;
11817;SDS011;5966;52.402;5.322;2023-04-16T14:16:52;19.70;;;8.63;;
11817;SDS011;5966;52.402;5.322;2023-04-16T14:19:20;13.10;;;7.93;;
11817;SDS011;5966;52.402;5.322;2023-04-16T14:21:48;13.53;;;7.53;;
11817;SDS011;5966;52.402;5.322;2023-04-16T14:24:16;14.00;;;7.83;;
11817;SDS011;5966;52.402;5.322;2023-04-16T14:26:44;17.47;;;8.73;;
11817;SDS011;5966;52.402;5.322;2023-04-16T14:29:12;20.50;;;8.43;;
11817;SDS011;5966;52.402;5.322;2023-04-16T14:31:42;18.63;;;8.63;;
11817;SDS011;5966;52.402;5.322;2023-04-16T14:34:10;17.87;;;8.90;;
11817;SDS011;5966;52.402;5.322;2023-04-16T14:36:38;16.73;;;9.20;;
11817;SDS011;5966;52.402;5.322;2023-04-16T14:39:06;14.03;;;8.90;;
11817;SDS011;5966;52.402;5.322;2023-04-16T14:41:34;17.03;;;10.57;;
11817;SDS011;5966;52.402;5.322;2023-04-16T14:44:02;17.10;;;9.00;;
11817;SDS011;5966;52.402;5.322;2023-04-16T14:46:32;17.80;;;9.57;;
11817;SDS011;5966;52.402;5.322;2023-04-16T14:49:01;20.60;;;9.43;;
11817;SDS011;5966;52.402;5.322;2023-04-16T14:51:29;17.63;;;9.57;;
11817;SDS011;5966;52.402;5.322;2023-04-16T14:53:57;20.77;;;10.20;;
11817;SDS011;5966;52.402;5.322;2023-04-16T14:56:25;18.90;;;9.70;;
11817;SDS011;5966;52.402;5.322;2023-04-16T14:58:53;16.43;;;10.03;;
11817;SDS011;5966;52.402;5.322;2023-04-16T15:01:21;19.70;;;9.77;;
11817;SDS011;5966;52.402;5.322;2023-04-16T15:03:49;19.80;;;9.77;;
11817;SDS011;5966;52.402;5.322;2023-04-16T15:06:19;19.20;;;10.80;;
11817;SDS011;5966;52.402;5.322;2023-04-16T15:08:47;20.37;;;9.63;;